Time;durP1;ratioP1;P1;durP2;ratioP2;P2;SDS_P1;SDS_P2;PMS_P1;PMS_P2;Temp;Humidity;BMP_temperature;BMP_pressure;BME280_temperature;BME280_humidity;BME280_pressure;Samples;Min_cycle;Max_cycle;Signal;HPM_P1;HPM_P2
2023/04/13 00:02:09;;;;;;;;;;;5.50;99.90;;;;;;4993797;28;211748;-69
2023/04/13 00:04:35;;;;;;;;;;;5.50;99.90;;;;;;5059984;28;20270;-69
2023/04/13 00:07:02;;;;;;;;;;;5.60;99.90;;;;;;5008705;28;207318;-69
2023/04/13 00:09:29;;;;;;;;;;;5.60;99.90;;;;;;5057043;28;19920;-68
2023/04/13 00:11:57;;;;;;;;;;;5.70;99.90;;;;;;5024251;28;208345;-69
2023/04/13 00:14:26;;;;;;;;;;;5.70;99.90;;;;;;5062880;28;19924;-69
2023/04/13 00:16:52;;;;;;;;;;;5.70;99.90;;;;;;5015634;28;206825;-70
2023/04/13 00:19:18;;;;;;;;;;;5.80;99.90;;;;;;5061660;28;20571;-69
2023/04/13 00:21:45;;;;;;;;;;;5.80;99.90;;;;;;5001588;28;217574;-68
2023/04/13 00:24:10;;;;;;;;;;;5.90;99.90;;;;;;5065099;28;19939;-68
2023/04/13 00:26:37;;;;;;;;;;;6.00;99.90;;;;;;5005649;28;205447;-69
2023/04/13 00:29:03;;;;;;;;;;;6.10;99.90;;;;;;5066570;28;19921;-68
2023/04/13 00:31:29;;;;;;;;;;;6.20;99.90;;;;;;5005720;28;209443;-69
2023/04/13 00:33:55;;;;;;;;;;;6.30;99.90;;;;;;5062839;28;20407;-69
2023/04/13 00:36:23;;;;;;;;;;;6.40;99.90;;;;;;5004386;28;207379;-69
2023/04/13 00:38:49;;;;;;;;;;;6.50;99.90;;;;;;5058040;28;19936;-68
2023/04/13 00:41:15;;;;;;;;;;;6.50;99.90;;;;;;5009535;28;217383;-69
2023/04/13 00:43:41;;;;;;;;;;;6.60;99.90;;;;;;5070086;28;19924;-69
2023/04/13 00:46:07;;;;;;;;;;;6.60;99.90;;;;;;5008634;28;212791;-69
2023/04/13 00:48:33;;;;;;;;;;;6.60;99.90;;;;;;5071194;28;19929;-71
2023/04/13 00:51:00;;;;;;;;;;;6.60;99.90;;;;;;5010588;28;207940;-70
2023/04/13 00:53:26;;;;;;;;;;;6.60;99.90;;;;;;5059110;28;19927;-70
2023/04/13 00:55:52;;;;;;;;;;;6.50;99.90;;;;;;5006220;28;207576;-70
2023/04/13 00:58:18;;;;;;;;;;;6.50;99.90;;;;;;5052081;28;20613;-69
2023/04/13 01:00:44;;;;;;;;;;;6.40;99.90;;;;;;4998297;28;209673;-70
2023/04/13 01:03:11;;;;;;;;;;;6.40;99.90;;;;;;5060249;28;19932;-69
2023/04/13 01:06:04;;;;;;;;;;;6.30;99.90;;;;;;5010177;28;209115;-70
2023/04/13 01:08:45;;;;;;;;;;;6.20;99.90;;;;;;5067551;28;19928;-70
2023/04/13 01:11:17;;;;;;;;;;;6.20;99.90;;;;;;4998432;28;211964;-70
2023/04/13 01:13:46;;;;;;;;;;;6.20;99.90;;;;;;5047177;28;19931;-72
2023/04/13 01:16:18;;;;;;;;;;;6.10;99.90;;;;;;5000694;28;209754;-71
2023/04/13 01:18:47;;;;;;;;;;;6.10;99.90;;;;;;5059333;28;19920;-72
2023/04/13 01:21:16;;;;;;;;;;;6.00;99.90;;;;;;4985597;28;185187;-72
2023/04/13 01:23:52;;;;;;;;;;;6.00;99.90;;;;;;5060756;28;19928;-72
2023/04/13 01:26:21;;;;;;;;;;;6.00;99.90;;;;;;5008573;28;212791;-71
2023/04/13 01:28:47;;;;;;;;;;;6.00;99.90;;;;;;5062282;28;19931;-72
2023/04/13 01:31:14;;;;;;;;;;;6.00;99.90;;;;;;5005364;28;211429;-71
2023/04/13 01:33:40;;;;;;;;;;;6.00;99.90;;;;;;5064345;28;19928;-72
2023/04/13 01:36:08;;;;;;;;;;;6.00;99.90;;;;;;5012728;28;214569;-73
2023/04/13 01:38:34;;;;;;;;;;;6.00;99.90;;;;;;5059985;28;19920;-73
2023/04/13 01:41:01;;;;;;;;;;;6.00;99.90;;;;;;5000372;28;216324;-72
2023/04/13 01:43:27;;;;;;;;;;;6.00;99.90;;;;;;5059824;28;19935;-73
2023/04/13 01:46:10;;;;;;;;;;;6.00;99.90;;;;;;5010349;28;206490;-73
2023/04/13 01:48:52;;;;;;;;;;;6.10;99.90;;;;;;5063278;28;19924;-72
2023/04/13 01:51:21;;;;;;;;;;;6.10;99.90;;;;;;5010330;28;98635;-72
2023/04/13 01:54:12;;;;;;;;;;;6.00;99.90;;;;;;5058760;28;19929;-73
2023/04/13 01:56:38;;;;;;;;;;;6.10;99.90;;;;;;5012438;28;206988;-73
2023/04/13 01:59:04;;;;;;;;;;;6.10;99.90;;;;;;5060211;28;19921;-73
2023/04/13 02:01:30;;;;;;;;;;;6.10;99.90;;;;;;5006131;28;206894;-74
2023/04/13 02:03:56;;;;;;;;;;;6.10;99.90;;;;;;5065539;28;20056;-73
2023/04/13 02:06:23;;;;;;;;;;;6.10;99.90;;;;;;5000548;28;206124;-73
2023/04/13 02:08:49;;;;;;;;;;;6.10;99.90;;;;;;5060240;28;20415;-73
2023/04/13 02:11:15;;;;;;;;;;;6.10;99.90;;;;;;5007820;28;148344;-73
2023/04/13 02:13:41;;;;;;;;;;;6.10;99.90;;;;;;5054132;28;19929;-73
2023/04/13 02:16:07;;;;;;;;;;;6.10;99.90;;;;;;5017600;28;207259;-73
2023/04/13 02:18:34;;;;;;;;;;;6.10;99.90;;;;;;5055073;28;19928;-73
2023/04/13 02:21:03;;;;;;;;;;;6.00;99.90;;;;;;5006148;28;206208;-72
2023/04/13 02:23:30;;;;;;;;;;;6.10;99.90;;;;;;5064191;28;19928;-73
2023/04/13 02:25:57;;;;;;;;;;;6.10;99.90;;;;;;4997236;28;211016;-74
2023/04/13 02:28:25;;;;;;;;;;;6.00;99.90;;;;;;5054365;28;19925;-73
2023/04/13 02:30:51;;;;;;;;;;;6.10;99.90;;;;;;4992756;28;211149;-73
2023/04/13 02:33:18;;;;;;;;;;;6.00;99.90;;;;;;5044257;28;19933;-72
2023/04/13 02:35:44;;;;;;;;;;;6.00;99.90;;;;;;5002475;28;207814;-72
2023/04/13 02:38:10;;;;;;;;;;;6.00;99.90;;;;;;5057564;28;19920;-72
2023/04/13 02:40:37;;;;;;;;;;;6.00;99.90;;;;;;5004772;28;208540;-73
2023/04/13 02:43:04;;;;;;;;;;;6.00;99.90;;;;;;5061465;28;19931;-72
2023/04/13 02:45:30;;;;;;;;;;;6.00;99.90;;;;;;5010660;28;211533;-73
2023/04/13 02:47:56;;;;;;;;;;;6.00;99.90;;;;;;5040399;28;19931;-72
2023/04/13 02:50:22;;;;;;;;;;;6.00;99.90;;;;;;5003015;28;207267;-71
2023/04/13 02:52:48;;;;;;;;;;;6.00;99.90;;;;;;5041800;28;19933;-73
2023/04/13 02:55:14;;;;;;;;;;;6.00;99.90;;;;;;4998527;28;210009;-73
2023/04/13 02:57:41;;;;;;;;;;;6.00;99.90;;;;;;5069919;28;19928;-73
2023/04/13 03:00:10;;;;;;;;;;;6.00;99.90;;;;;;4994301;28;207847;-73
2023/04/13 03:02:36;;;;;;;;;;;6.00;99.90;;;;;;5071505;28;19928;-73
2023/04/13 03:05:04;;;;;;;;;;;6.00;99.90;;;;;;5021243;28;207777;-73
2023/04/13 03:07:35;;;;;;;;;;;6.00;99.90;;;;;;5026531;28;19930;-73
2023/04/13 03:10:04;;;;;;;;;;;6.00;99.90;;;;;;5033751;28;210367;-73
2023/04/13 03:12:30;;;;;;;;;;;6.10;99.90;;;;;;5036001;28;20028;-74
2023/04/13 03:14:56;;;;;;;;;;;6.10;99.90;;;;;;5061451;28;19933;-74
2023/04/13 03:17:22;;;;;;;;;;;6.10;99.90;;;;;;5012519;28;158394;-73
2023/04/13 03:19:49;;;;;;;;;;;6.10;99.90;;;;;;5061395;28;19924;-73
2023/04/13 03:22:16;;;;;;;;;;;6.10;99.90;;;;;;5023226;28;208016;-73
2023/04/13 03:24:42;;;;;;;;;;;6.10;99.90;;;;;;5062825;28;19920;-73
2023/04/13 03:27:08;;;;;;;;;;;6.10;99.90;;;;;;5016743;28;219739;-73
2023/04/13 03:29:33;;;;;;;;;;;6.10;99.90;;;;;;5044901;28;20023;-73
2023/04/13 03:32:00;;;;;;;;;;;6.10;99.90;;;;;;5022315;28;214511;-72
2023/04/13 03:34:26;;;;;;;;;;;6.10;99.90;;;;;;5060272;28;20397;-73
2023/04/13 03:36:51;;;;;;;;;;;6.10;99.90;;;;;;4983398;28;207952;-73
2023/04/13 03:39:17;;;;;;;;;;;6.10;99.90;;;;;;5061164;28;20023;-72
2023/04/13 03:41:43;;;;;;;;;;;6.20;99.90;;;;;;5012552;28;205298;-71
2023/04/13 03:44:09;;;;;;;;;;;6.20;99.90;;;;;;5065277;28;19932;-73
2023/04/13 03:46:36;;;;;;;;;;;6.20;99.90;;;;;;5001552;28;205314;-74
2023/04/13 03:49:06;;;;;;;;;;;6.20;99.90;;;;;;5070163;28;20320;-73
2023/04/13 03:51:32;;;;;;;;;;;6.20;99.90;;;;;;4997143;28;207822;-72
2023/04/13 03:53:58;;;;;;;;;;;6.20;99.90;;;;;;5062917;28;19921;-72
2023/04/13 03:56:24;;;;;;;;;;;6.30;99.90;;;;;;5013971;28;209316;-71
2023/04/13 03:58:50;;;;;;;;;;;6.30;99.90;;;;;;5059534;28;19970;-72
2023/04/13 04:01:16;;;;;;;;;;;6.20;99.90;;;;;;4991198;28;207590;-74
2023/04/13 04:03:42;;;;;;;;;;;6.30;99.90;;;;;;5056766;28;19975;-73
2023/04/13 04:06:09;;;;;;;;;;;6.20;99.90;;;;;;4999825;28;207701;-71
2023/04/13 04:08:35;;;;;;;;;;;6.30;99.90;;;;;;5062574;28;19924;-73
2023/04/13 04:11:03;;;;;;;;;;;6.30;99.90;;;;;;4996484;28;203179;-72
2023/04/13 04:13:29;;;;;;;;;;;6.20;99.90;;;;;;5060399;28;19924;-72
2023/04/13 04:15:55;;;;;;;;;;;6.20;99.90;;;;;;4991771;28;207174;-72
2023/04/13 04:18:21;;;;;;;;;;;6.20;99.90;;;;;;5059187;28;19920;-71
2023/04/13 04:20:47;;;;;;;;;;;6.20;99.90;;;;;;5010057;28;102994;-72
2023/04/13 04:23:14;;;;;;;;;;;6.20;99.90;;;;;;5062043;28;19924;-72
2023/04/13 04:25:40;;;;;;;;;;;6.20;99.90;;;;;;5016292;28;212917;-72
2023/04/13 04:28:06;;;;;;;;;;;6.20;99.90;;;;;;5062660;28;19929;-72
2023/04/13 04:30:33;;;;;;;;;;;6.20;99.90;;;;;;5004908;28;209081;-72
2023/04/13 04:32:59;;;;;;;;;;;6.20;99.90;;;;;;5051530;28;19935;-71
2023/04/13 04:35:31;;;;;;;;;;;6.10;99.90;;;;;;4999230;28;212863;-71
2023/04/13 04:37:59;;;;;;;;;;;6.10;99.90;;;;;;5058235;28;19925;-71
2023/04/13 04:40:26;;;;;;;;;;;6.10;99.90;;;;;;5003823;28;209555;-72
2023/04/13 04:42:52;;;;;;;;;;;6.10;99.90;;;;;;5073168;28;20042;-71
2023/04/13 04:45:19;;;;;;;;;;;6.10;99.90;;;;;;5002867;28;209546;-72
2023/04/13 04:47:47;;;;;;;;;;;6.10;99.90;;;;;;5043237;28;20503;-72
2023/04/13 04:50:13;;;;;;;;;;;6.10;99.90;;;;;;5022015;28;208446;-71
2023/04/13 04:52:40;;;;;;;;;;;6.20;99.90;;;;;;5056178;28;19929;-72
2023/04/13 04:55:06;;;;;;;;;;;6.20;99.90;;;;;;5003590;28;212644;-70
2023/04/13 04:57:33;;;;;;;;;;;6.20;99.90;;;;;;5077379;28;20425;-71
2023/04/13 05:00:00;;;;;;;;;;;6.30;99.90;;;;;;5052836;28;207697;-70
2023/04/13 05:02:26;;;;;;;;;;;6.30;99.90;;;;;;5015722;28;74834;-71
2023/04/13 05:04:52;;;;;;;;;;;6.20;99.90;;;;;;5062911;28;20397;-71
2023/04/13 05:07:18;;;;;;;;;;;6.30;99.90;;;;;;5010864;28;207816;-72
2023/04/13 05:09:44;;;;;;;;;;;6.20;99.90;;;;;;5066345;28;19947;-71
2023/04/13 05:12:10;;;;;;;;;;;6.20;99.90;;;;;;5016477;28;164401;-71
2023/04/13 05:14:37;;;;;;;;;;;6.20;99.90;;;;;;5067095;28;19928;-70
2023/04/13 05:17:03;;;;;;;;;;;6.20;99.90;;;;;;5020468;28;213639;-70
2023/04/13 05:19:29;;;;;;;;;;;6.10;99.90;;;;;;5064458;28;20475;-70
2023/04/13 05:21:54;;;;;;;;;;;6.20;99.90;;;;;;5020268;28;211829;-70
2023/04/13 05:24:20;;;;;;;;;;;6.30;99.90;;;;;;5067907;28;19935;-70
2023/04/13 05:26:46;;;;;;;;;;;6.40;99.90;;;;;;5020589;28;209081;-72
2023/04/13 05:29:12;;;;;;;;;;;6.50;99.90;;;;;;5061307;28;19936;-70
2023/04/13 05:31:38;;;;;;;;;;;6.70;99.90;;;;;;5001836;28;207407;-71
2023/04/13 05:34:04;;;;;;;;;;;6.90;99.90;;;;;;5063600;28;19936;-70
2023/04/13 05:36:31;;;;;;;;;;;7.00;99.90;;;;;;5015943;28;209151;-70
2023/04/13 05:39:00;;;;;;;;;;;7.00;99.90;;;;;;5064223;28;19927;-70
2023/04/13 05:41:26;;;;;;;;;;;7.20;99.90;;;;;;5006915;28;207560;-70
2023/04/13 05:43:52;;;;;;;;;;;7.30;99.90;;;;;;5062209;28;19920;-70
2023/04/13 05:46:18;;;;;;;;;;;7.50;99.90;;;;;;5014015;28;206514;-71
2023/04/13 05:48:44;;;;;;;;;;;7.60;99.90;;;;;;5062264;28;19935;-71
2023/04/13 05:51:11;;;;;;;;;;;7.60;99.90;;;;;;5011652;28;212451;-70
2023/04/13 05:53:37;;;;;;;;;;;7.80;99.90;;;;;;5063833;28;19940;-69
2023/04/13 05:56:03;;;;;;;;;;;7.80;99.90;;;;;;5012346;28;207425;-71
2023/04/13 05:58:30;;;;;;;;;;;7.70;99.90;;;;;;5064096;28;19929;-71
2023/04/13 06:00:56;;;;;;;;;;;7.60;99.90;;;;;;4991701;28;207000;-70
2023/04/13 06:03:24;;;;;;;;;;;7.90;99.90;;;;;;5053986;28;19925;-72
2023/04/13 06:05:51;;;;;;;;;;;8.00;99.90;;;;;;5004433;28;205685;-70
2023/04/13 06:08:17;;;;;;;;;;;7.70;99.90;;;;;;5064625;28;19928;-71
2023/04/13 06:10:43;;;;;;;;;;;7.40;99.90;;;;;;5001581;28;210266;-71
2023/04/13 06:13:09;;;;;;;;;;;7.40;99.90;;;;;;5069110;28;20281;-69
2023/04/13 06:15:35;;;;;;;;;;;7.30;99.90;;;;;;5014589;28;218383;-69
2023/04/13 06:18:01;;;;;;;;;;;7.30;99.90;;;;;;5048088;28;19932;-70
2023/04/13 06:20:27;;;;;;;;;;;7.20;99.90;;;;;;5016086;28;200492;-70
2023/04/13 06:22:53;;;;;;;;;;;7.20;99.90;;;;;;5058611;28;19931;-69
2023/04/13 06:25:19;;;;;;;;;;;7.30;99.90;;;;;;5008329;28;210178;-71
2023/04/13 06:27:45;;;;;;;;;;;7.30;99.90;;;;;;5052486;28;19925;-71
2023/04/13 06:30:11;;;;;;;;;;;7.30;99.90;;;;;;5005407;28;209147;-71
2023/04/13 06:32:37;;;;;;;;;;;7.20;99.90;;;;;;5076950;28;19936;-70
2023/04/13 06:35:04;;;;;;;;;;;7.20;99.90;;;;;;5007843;28;207039;-70
2023/04/13 06:37:31;;;;;;;;;;;7.20;99.90;;;;;;5038599;28;20337;-70
2023/04/13 06:39:57;;;;;;;;;;;7.50;99.90;;;;;;5055325;28;211114;-69
2023/04/13 06:42:23;;;;;;;;;;;7.40;99.90;;;;;;4997738;28;209285;-70
2023/04/13 06:44:49;;;;;;;;;;;7.40;99.90;;;;;;5061150;28;19925;-70
2023/04/13 06:47:15;;;;;;;;;;;7.50;99.90;;;;;;5008054;28;206787;-71
2023/04/13 06:49:41;;;;;;;;;;;7.40;99.90;;;;;;5062886;28;19982;-71
2023/04/13 06:52:07;;;;;;;;;;;7.50;99.90;;;;;;5007800;28;209525;-70
2023/04/13 06:54:34;;;;;;;;;;;7.80;99.90;;;;;;5073972;28;20000;-70
2023/04/13 06:57:00;;;;;;;;;;;8.20;99.90;;;;;;5003435;28;209552;-70
2023/04/13 06:59:26;;;;;;;;;;;8.10;99.90;;;;;;5062290;28;19924;-68
2023/04/13 07:01:52;;;;;;;;;;;8.00;99.90;;;;;;4993728;28;219471;-69
2023/04/13 07:04:18;;;;;;;;;;;7.90;99.90;;;;;;5061263;28;19986;-68
2023/04/13 07:06:45;;;;;;;;;;;7.90;99.90;;;;;;5017945;28;206933;-70
2023/04/13 07:09:11;;;;;;;;;;;8.30;99.90;;;;;;5066455;28;19920;-70
2023/04/13 07:11:37;;;;;;;;;;;8.50;99.90;;;;;;5017220;28;208884;-70
2023/04/13 07:14:03;;;;;;;;;;;8.60;99.90;;;;;;5060975;28;19933;-70
2023/04/13 07:16:29;;;;;;;;;;;8.80;99.90;;;;;;5018623;28;207837;-69
2023/04/13 07:18:55;;;;;;;;;;;9.00;99.90;;;;;;5056397;28;19921;-72
2023/04/13 07:21:21;;;;;;;;;;;8.80;99.90;;;;;;5015280;28;207169;-70
2023/04/13 07:23:47;;;;;;;;;;;9.00;99.90;;;;;;5061370;28;19925;-70
2023/04/13 07:26:14;;;;;;;;;;;9.30;99.90;;;;;;5010970;28;208490;-69
2023/04/13 07:28:40;;;;;;;;;;;9.30;99.90;;;;;;5038286;28;19920;-69
2023/04/13 07:31:06;;;;;;;;;;;9.60;99.90;;;;;;5012648;28;206318;-70
2023/04/13 07:33:32;;;;;;;;;;;9.90;99.90;;;;;;5061200;28;20297;-72
2023/04/13 07:35:58;;;;;;;;;;;9.90;99.90;;;;;;5010822;28;193144;-70
2023/04/13 07:38:24;;;;;;;;;;;9.90;99.90;;;;;;5063963;28;19924;-70
2023/04/13 07:40:50;;;;;;;;;;;9.90;99.90;;;;;;5006248;28;212654;-70
2023/04/13 07:43:16;;;;;;;;;;;9.60;99.90;;;;;;5058849;28;20396;-70
2023/04/13 07:45:42;;;;;;;;;;;9.60;99.90;;;;;;5002664;28;208552;-71
2023/04/13 07:48:08;;;;;;;;;;;9.70;99.90;;;;;;5075423;28;19930;-70
2023/04/13 07:50:40;;;;;;;;;;;9.70;99.90;;;;;;5013990;28;206883;-70
2023/04/13 07:53:06;;;;;;;;;;;9.40;99.90;;;;;;5060005;28;19936;-71
2023/04/13 07:55:32;;;;;;;;;;;9.10;99.90;;;;;;5013162;28;212442;-70
2023/04/13 07:57:58;;;;;;;;;;;8.70;99.90;;;;;;5069659;28;20422;-70
2023/04/13 08:00:24;;;;;;;;;;;8.40;99.90;;;;;;4993336;28;210362;-72
2023/04/13 08:02:52;;;;;;;;;;;8.20;99.90;;;;;;5073059;28;19942;-71
2023/04/13 08:05:18;;;;;;;;;;;7.90;99.90;;;;;;5000648;28;210411;-71
2023/04/13 08:07:45;;;;;;;;;;;7.90;99.90;;;;;;5059677;28;19928;-71
2023/04/13 08:10:11;;;;;;;;;;;7.70;99.90;;;;;;5008252;28;211760;-71
2023/04/13 08:12:37;;;;;;;;;;;7.80;99.90;;;;;;5061859;28;21244;-72
2023/04/13 08:15:03;;;;;;;;;;;7.90;99.90;;;;;;5017124;28;209109;-71
2023/04/13 08:17:30;;;;;;;;;;;8.20;99.90;;;;;;5046058;28;19927;-71
2023/04/13 08:19:56;;;;;;;;;;;8.50;99.90;;;;;;5064447;28;19932;-72
2023/04/13 08:22:22;;;;;;;;;;;8.70;99.90;;;;;;5002044;28;206941;-71
2023/04/13 08:24:48;;;;;;;;;;;8.70;99.90;;;;;;5058059;28;19925;-72
2023/04/13 08:27:14;;;;;;;;;;;8.70;99.90;;;;;;4994776;28;206580;-72
2023/04/13 08:29:40;;;;;;;;;;;8.60;99.90;;;;;;5075457;28;20000;-70
2023/04/13 08:32:06;;;;;;;;;;;8.60;99.90;;;;;;5027468;28;210589;-72
2023/04/13 08:34:32;;;;;;;;;;;8.40;99.90;;;;;;5065432;28;19924;-71
2023/04/13 08:36:58;;;;;;;;;;;8.40;99.90;;;;;;5016599;28;210851;-70
2023/04/13 08:39:23;;;;;;;;;;;8.60;99.90;;;;;;5064292;28;19958;-71
2023/04/13 08:41:49;;;;;;;;;;;8.70;99.90;;;;;;5015982;28;207822;-71
2023/04/13 08:44:16;;;;;;;;;;;8.60;99.90;;;;;;5063774;28;19962;-72
2023/04/13 08:46:45;;;;;;;;;;;8.40;99.90;;;;;;5019751;28;206831;-71
2023/04/13 08:49:11;;;;;;;;;;;8.40;99.90;;;;;;5063767;28;20564;-70
2023/04/13 08:51:37;;;;;;;;;;;8.50;99.90;;;;;;5022868;28;211176;-72
2023/04/13 08:54:04;;;;;;;;;;;8.40;99.90;;;;;;5062638;28;19931;-73
2023/04/13 08:56:31;;;;;;;;;;;8.20;99.90;;;;;;5014933;28;211793;-71
2023/04/13 08:59:01;;;;;;;;;;;8.20;99.90;;;;;;5069346;28;19931;-71
2023/04/13 09:01:28;;;;;;;;;;;8.70;99.90;;;;;;5003587;28;175870;-71
2023/04/13 09:04:00;;;;;;;;;;;8.70;99.90;;;;;;5068953;28;19920;-71
2023/04/13 09:06:31;;;;;;;;;;;9.20;99.90;;;;;;5015496;28;207931;-72
2023/04/13 09:08:58;;;;;;;;;;;9.60;99.90;;;;;;5071340;28;19927;-73
2023/04/13 09:11:24;;;;;;;;;;;9.80;99.90;;;;;;5007135;28;206912;-72
2023/04/13 09:13:51;;;;;;;;;;;9.60;99.90;;;;;;5063700;28;19925;-72
2023/04/13 09:16:18;;;;;;;;;;;9.80;99.90;;;;;;5006161;28;217131;-72
2023/04/13 09:18:51;;;;;;;;;;;9.60;99.90;;;;;;5064934;28;19931;-72
2023/04/13 09:21:17;;;;;;;;;;;9.70;99.90;;;;;;4996380;28;207178;-74
2023/04/13 09:23:53;;;;;;;;;;;10.50;99.90;;;;;;5052071;28;19936;-74
2023/04/13 09:26:19;;;;;;;;;;;11.20;99.90;;;;;;5008680;28;207830;-73
2023/04/13 09:28:46;;;;;;;;;;;11.60;99.90;;;;;;5062709;28;19925;-73
2023/04/13 09:31:12;;;;;;;;;;;12.30;99.90;;;;;;5012318;28;208342;-74
2023/04/13 09:33:45;;;;;;;;;;;11.70;99.90;;;;;;5068209;28;19940;-70
2023/04/13 09:36:12;;;;;;;;;;;10.80;99.90;;;;;;5011262;28;214043;-73
2023/04/13 09:38:38;;;;;;;;;;;10.40;99.90;;;;;;5059533;28;19924;-73
2023/04/13 09:41:05;;;;;;;;;;;11.20;99.90;;;;;;5007549;28;208546;-71
2023/04/13 09:43:38;;;;;;;;;;;11.50;99.90;;;;;;5050282;28;19932;-72
2023/04/13 09:46:10;;;;;;;;;;;12.20;99.90;;;;;;5007781;28;204396;-71
2023/04/13 09:48:37;;;;;;;;;;;13.30;99.90;;;;;;5076334;28;20431;-72
2023/04/13 09:51:05;;;;;;;;;;;12.70;99.90;;;;;;5009588;28;208068;-74
2023/04/13 09:53:38;;;;;;;;;;;11.40;99.90;;;;;;5068570;28;19929;-72
2023/04/13 09:56:04;;;;;;;;;;;10.60;99.90;;;;;;5014754;28;212402;-73
2023/04/13 09:58:30;;;;;;;;;;;10.00;99.90;;;;;;5066093;28;19921;-75
2023/04/13 10:00:56;;;;;;;;;;;9.40;99.90;;;;;;4990862;28;232078;-75
2023/04/13 10:03:22;;;;;;;;;;;8.70;99.90;;;;;;5061349;28;20389;-74
2023/04/13 10:05:48;;;;;;;;;;;8.30;99.90;;;;;;5016461;28;206214;-75
2023/04/13 10:08:15;;;;;;;;;;;8.00;99.90;;;;;;5060314;28;19924;-75
2023/04/13 10:10:41;;;;;;;;;;;7.90;99.90;;;;;;5004659;28;206303;-73
2023/04/13 10:13:15;;;;;;;;;;;7.70;99.90;;;;;;5069693;28;19924;-75
2023/04/13 10:16:00;;;;;;;;;;;7.70;99.90;;;;;;5013444;28;210032;-76
2023/04/13 10:18:41;;;;;;;;;;;7.80;99.90;;;;;;5065050;28;20763;-76
2023/04/13 10:21:07;;;;;;;;;;;7.90;99.90;;;;;;5022653;28;207196;-76
2023/04/13 10:23:34;;;;;;;;;;;7.90;99.90;;;;;;5063865;28;19970;-77
2023/04/13 10:26:02;;;;;;;;;;;7.90;99.90;;;;;;5011170;28;215733;-75
2023/04/13 10:28:28;;;;;;;;;;;7.80;99.90;;;;;;5058597;28;19932;-75
2023/04/13 10:30:54;;;;;;;;;;;7.70;99.90;;;;;;5009727;28;207940;-76
2023/04/13 10:33:20;;;;;;;;;;;7.60;99.90;;;;;;5046542;28;20424;-74
2023/04/13 10:35:58;;;;;;;;;;;7.50;99.90;;;;;;5009144;28;207289;-74
2023/04/13 10:38:26;;;;;;;;;;;7.30;99.90;;;;;;5051192;28;19932;-74
2023/04/13 10:40:52;;;;;;;;;;;7.10;99.90;;;;;;5012031;28;207929;-76
2023/04/13 10:43:31;;;;;;;;;;;7.10;99.90;;;;;;5068959;28;19935;-73
2023/04/13 10:46:07;;;;;;;;;;;7.10;99.90;;;;;;5001202;28;197350;-74
2023/04/13 10:48:33;;;;;;;;;;;7.20;99.90;;;;;;5067284;28;20675;-75
2023/04/13 10:50:59;;;;;;;;;;;7.30;99.90;;;;;;5018503;28;213291;-75
2023/04/13 10:53:29;;;;;;;;;;;7.40;99.90;;;;;;5064825;28;19928;-75
2023/04/13 10:55:58;;;;;;;;;;;7.50;99.90;;;;;;5027939;28;194162;-74
2023/04/13 10:58:25;;;;;;;;;;;7.60;99.90;;;;;;5055741;28;19924;-75
2023/04/13 11:00:53;;;;;;;;;;;7.80;99.90;;;;;;4993940;28;205731;-75
2023/04/13 11:03:19;;;;;;;;;;;8.00;99.90;;;;;;5072732;28;19947;-75
2023/04/13 11:05:46;;;;;;;;;;;8.30;99.90;;;;;;5009982;28;208578;-74
2023/04/13 11:08:17;;;;;;;;;;;8.70;99.90;;;;;;5064180;28;19947;-75
2023/04/13 11:10:48;;;;;;;;;;;8.70;99.90;;;;;;5005423;28;206396;-75
2023/04/13 11:13:15;;;;;;;;;;;8.80;99.90;;;;;;5060588;28;19925;-75
2023/04/13 11:15:41;;;;;;;;;;;8.90;99.90;;;;;;5026253;28;188240;-75
2023/04/13 11:18:06;;;;;;;;;;;9.00;99.90;;;;;;5051046;28;20031;-75
2023/04/13 11:20:37;;;;;;;;;;;9.20;99.90;;;;;;5015218;28;206340;-74
2023/04/13 11:23:04;;;;;;;;;;;9.60;99.90;;;;;;5058474;28;19939;-75
2023/04/13 11:25:32;;;;;;;;;;;9.70;99.90;;;;;;5009254;28;206651;-75
2023/04/13 11:27:59;;;;;;;;;;;9.90;99.90;;;;;;5056021;28;19928;-76
2023/04/13 11:30:25;;;;;;;;;;;9.90;99.90;;;;;;5000269;28;213264;-74
2023/04/13 11:32:54;;;;;;;;;;;9.90;99.90;;;;;;5059670;28;19921;-77
2023/04/13 11:35:23;;;;;;;;;;;9.90;99.90;;;;;;4998503;28;219711;-73
2023/04/13 11:37:52;;;;;;;;;;;10.10;99.90;;;;;;5031100;28;20363;-76
2023/04/13 11:40:24;;;;;;;;;;;10.50;99.90;;;;;;5007702;28;220399;-75
2023/04/13 11:42:52;;;;;;;;;;;10.50;99.90;;;;;;5056683;28;19920;-74
2023/04/13 11:45:19;;;;;;;;;;;10.50;99.90;;;;;;5010055;28;208877;-77
2023/04/13 11:47:45;;;;;;;;;;;10.50;99.90;;;;;;5061718;28;20562;-73
2023/04/13 11:50:11;;;;;;;;;;;10.40;99.90;;;;;;5013625;28;208097;-73
2023/04/13 11:52:38;;;;;;;;;;;10.30;99.90;;;;;;5079417;28;20405;-74
2023/04/13 11:55:05;;;;;;;;;;;10.30;99.90;;;;;;5019263;28;226499;-73
2023/04/13 11:57:34;;;;;;;;;;;10.30;99.90;;;;;;5047855;28;19924;-73
2023/04/13 12:00:00;;;;;;;;;;;10.40;99.90;;;;;;5040401;28;215211;-74
2023/04/13 12:02:27;;;;;;;;;;;10.50;99.90;;;;;;5031054;28;220464;-73
2023/04/13 12:04:53;;;;;;;;;;;10.60;99.90;;;;;;5078633;28;19931;-72
2023/04/13 12:07:19;;;;;;;;;;;10.90;99.90;;;;;;5025432;28;207010;-75
2023/04/13 12:09:46;;;;;;;;;;;10.80;99.90;;;;;;5061365;28;19928;-72
2023/04/13 12:12:15;;;;;;;;;;;10.80;99.90;;;;;;5027789;28;207860;-72
2023/04/13 12:14:41;;;;;;;;;;;10.70;99.90;;;;;;5080917;28;19931;-72
2023/04/13 12:17:11;;;;;;;;;;;10.60;99.90;;;;;;5009858;28;206916;-73
2023/04/13 12:19:40;;;;;;;;;;;10.50;99.90;;;;;;5057819;28;19925;-71
2023/04/13 12:22:06;;;;;;;;;;;10.40;99.90;;;;;;5022099;28;220744;-74
2023/04/13 12:24:36;;;;;;;;;;;10.30;99.90;;;;;;5076768;28;19928;-72
2023/04/13 12:27:02;;;;;;;;;;;10.20;99.90;;;;;;5000675;28;210979;-74
2023/04/13 12:29:29;;;;;;;;;;;10.10;99.90;;;;;;5064724;28;19924;-72
2023/04/13 12:31:58;;;;;;;;;;;10.00;99.90;;;;;;5021252;28;206438;-73
2023/04/13 12:34:24;;;;;;;;;;;9.90;99.90;;;;;;5063805;28;19932;-72
2023/04/13 12:36:50;;;;;;;;;;;9.80;99.90;;;;;;5029245;28;208627;-73
2023/04/13 12:39:16;;;;;;;;;;;9.70;99.90;;;;;;5059726;28;19928;-73
2023/04/13 12:41:42;;;;;;;;;;;9.80;99.90;;;;;;5013628;28;214618;-72
2023/04/13 12:44:09;;;;;;;;;;;9.80;99.90;;;;;;5064603;28;19970;-74
2023/04/13 12:46:35;;;;;;;;;;;9.90;99.90;;;;;;5012949;28;208004;-71
2023/04/13 12:49:01;;;;;;;;;;;9.80;99.90;;;;;;5070455;28;20099;-71
2023/04/13 12:51:27;;;;;;;;;;;9.90;99.90;;;;;;5011371;28;207921;-72
2023/04/13 12:53:53;;;;;;;;;;;10.00;99.90;;;;;;5062299;28;19935;-72
2023/04/13 12:56:19;;;;;;;;;;;10.10;99.90;;;;;;4993682;28;207428;-73
2023/04/13 12:58:45;;;;;;;;;;;10.20;99.90;;;;;;5062851;28;19928;-71
2023/04/13 13:01:12;;;;;;;;;;;10.30;99.90;;;;;;5003541;28;207789;-72
2023/04/13 13:03:38;;;;;;;;;;;10.30;99.90;;;;;;5063562;28;19939;-73
2023/04/13 13:06:05;;;;;;;;;;;10.40;99.90;;;;;;5015771;28;211609;-72
2023/04/13 13:08:31;;;;;;;;;;;10.40;99.90;;;;;;5046000;28;19935;-71
2023/04/13 13:10:57;;;;;;;;;;;10.40;99.90;;;;;;5004444;28;206372;-72
2023/04/13 13:13:23;;;;;;;;;;;10.30;99.90;;;;;;5069672;28;20428;-71
2023/04/13 13:15:50;;;;;;;;;;;10.10;99.90;;;;;;5031645;28;207137;-72
2023/04/13 13:18:16;;;;;;;;;;;10.10;99.90;;;;;;5079036;28;19924;-67
2023/04/13 13:20:52;;;;;;;;;;;10.10;99.90;;;;;;5005034;28;223601;-75
2023/04/13 13:23:18;;;;;;;;;;;10.00;99.90;;;;;;5056619;28;19925;-72
2023/04/13 13:25:45;;;;;;;;;;;10.00;99.90;;;;;;5014774;28;206116;-72
2023/04/13 13:28:11;;;;;;;;;;;10.00;99.90;;;;;;5051991;28;19965;-72
2023/04/13 13:30:37;;;;;;;;;;;10.00;99.90;;;;;;5009357;28;211081;-71
2023/04/13 13:33:03;;;;;;;;;;;10.00;99.90;;;;;;5063074;28;20277;-72
2023/04/13 13:35:30;;;;;;;;;;;10.00;99.90;;;;;;5005280;28;206193;-72
2023/04/13 13:37:56;;;;;;;;;;;10.10;99.90;;;;;;5065166;28;19924;-71
2023/04/13 13:40:22;;;;;;;;;;;10.10;99.90;;;;;;5001455;28;210076;-70
2023/04/13 13:42:48;;;;;;;;;;;10.20;99.90;;;;;;5044675;28;20613;-71
2023/04/13 13:45:14;;;;;;;;;;;10.30;99.90;;;;;;5013019;28;207924;-70
2023/04/13 13:47:40;;;;;;;;;;;10.40;99.90;;;;;;5048646;28;19935;-70
2023/04/13 13:50:06;;;;;;;;;;;10.60;99.90;;;;;;5013269;28;212803;-69
2023/04/13 13:52:32;;;;;;;;;;;10.60;99.90;;;;;;5052927;28;20373;-71
2023/04/13 13:54:58;;;;;;;;;;;10.60;99.90;;;;;;5054189;28;205501;-71
2023/04/13 13:57:24;;;;;;;;;;;10.70;99.90;;;;;;5009987;28;210401;-70
2023/04/13 13:59:50;;;;;;;;;;;10.60;99.90;;;;;;5061517;28;19920;-70
2023/04/13 14:02:16;;;;;;;;;;;10.70;99.90;;;;;;5003183;28;211272;-71
2023/04/13 14:04:42;;;;;;;;;;;10.90;99.90;;;;;;5064563;28;19924;-72
2023/04/13 14:07:08;;;;;;;;;;;11.30;99.90;;;;;;5021912;28;208704;-72
2023/04/13 14:09:34;;;;;;;;;;;11.40;99.90;;;;;;5063351;28;19924;-70
2023/04/13 14:12:00;;;;;;;;;;;11.40;99.90;;;;;;5025543;28;208135;-72
2023/04/13 14:14:26;;;;;;;;;;;11.30;99.90;;;;;;5057792;28;20345;-69
2023/04/13 14:16:52;;;;;;;;;;;11.20;99.90;;;;;;5005226;28;217816;-71
2023/04/13 14:19:19;;;;;;;;;;;11.10;99.90;;;;;;5061817;28;19944;-69
2023/04/13 14:21:47;;;;;;;;;;;10.90;99.90;;;;;;5009178;28;206057;-70